sensor_id;sensor_type;location;lat;lon;timestamp;P1;durP1;ratioP1;P2;durP2;ratioP2
26106;SDS011;13866;50.748;12.630;2022-10-16T00:00:28;2.30;;;0.57;;
26106;SDS011;13866;50.748;12.630;2022-10-16T00:02:54;0.40;;;0.40;;
26106;SDS011;13866;50.748;12.630;2022-10-16T00:05:20;0.70;;;0.70;;
26106;SDS011;13866;50.748;12.630;2022-10-16T00:07:45;0.60;;;0.60;;
26106;SDS011;13866;50.748;12.630;2022-10-16T00:10:11;0.60;;;0.40;;
26106;SDS011;13866;50.748;12.630;2022-10-16T00:12:36;0.93;;;0.60;;
26106;SDS011;13866;50.748;12.630;2022-10-16T00:15:02;0.50;;;0.50;;
26106;SDS011;13866;50.748;12.630;2022-10-16T00:17:28;0.60;;;0.60;;
26106;SDS011;13866;50.748;12.630;2022-10-16T00:19:54;0.50;;;0.50;;
26106;SDS011;13866;50.748;12.630;2022-10-16T00:22:20;0.57;;;0.57;;
26106;SDS011;13866;50.748;12.630;2022-10-16T00:24:45;1.53;;;0.63;;
26106;SDS011;13866;50.748;12.630;2022-10-16T00:27:11;0.83;;;0.80;;
26106;SDS011;13866;50.748;12.630;2022-10-16T00:29:36;0.60;;;0.60;;
26106;SDS011;13866;50.748;12.630;2022-10-16T00:32:02;0.40;;;0.40;;
26106;SDS011;13866;50.748;12.630;2022-10-16T00:34:28;1.43;;;0.50;;
26106;SDS011;13866;50.748;12.630;2022-10-16T00:36:53;3.10;;;0.60;;
26106;SDS011;13866;50.748;12.630;2022-10-16T00:39:19;0.50;;;0.50;;
26106;SDS011;13866;50.748;12.630;2022-10-16T00:41:44;0.87;;;0.50;;
26106;SDS011;13866;50.748;12.630;2022-10-16T00:47:08;0.57;;;0.57;;
26106;SDS011;13866;50.748;12.630;2022-10-16T00:49:35;0.40;;;0.40;;
26106;SDS011;13866;50.748;12.630;2022-10-16T00:52:01;0.60;;;0.60;;
26106;SDS011;13866;50.748;12.630;2022-10-16T00:54:28;0.60;;;0.60;;
26106;SDS011;13866;50.748;12.630;2022-10-16T00:56:56;0.50;;;0.50;;
26106;SDS011;13866;50.748;12.630;2022-10-16T00:59:26;0.53;;;0.53;;
26106;SDS011;13866;50.748;12.630;2022-10-16T01:01:54;0.63;;;0.63;;
26106;SDS011;13866;50.748;12.630;2022-10-16T01:04:21;0.60;;;0.60;;
26106;SDS011;13866;50.748;12.630;2022-10-16T01:06:51;0.50;;;0.50;;
26106;SDS011;13866;50.748;12.630;2022-10-16T01:12:01;0.90;;;0.67;;
26106;SDS011;13866;50.748;12.630;2022-10-16T01:17:24;0.50;;;0.50;;
26106;SDS011;13866;50.748;12.630;2022-10-16T01:20:18;0.70;;;0.70;;
26106;SDS011;13866;50.748;12.630;2022-10-16T01:22:59;0.67;;;0.50;;
26106;SDS011;13866;50.748;12.630;2022-10-16T01:25:36;1.00;;;0.60;;
26106;SDS011;13866;50.748;12.630;2022-10-16T01:28:17;0.50;;;0.50;;
26106;SDS011;13866;50.748;12.630;2022-10-16T01:30:46;0.43;;;0.43;;
26106;SDS011;13866;50.748;12.630;2022-10-16T01:33:19;0.57;;;0.57;;
26106;SDS011;13866;50.748;12.630;2022-10-16T01:35:52;0.80;;;0.80;;
26106;SDS011;13866;50.748;12.630;2022-10-16T01:41:02;1.10;;;0.60;;
26106;SDS011;13866;50.748;12.630;2022-10-16T01:43:56;0.67;;;0.67;;
26106;SDS011;13866;50.748;12.630;2022-10-16T01:46:27;0.60;;;0.60;;
26106;SDS011;13866;50.748;12.630;2022-10-16T01:48:56;0.97;;;0.57;;
26106;SDS011;13866;50.748;12.630;2022-10-16T01:51:22;0.50;;;0.50;;
26106;SDS011;13866;50.748;12.630;2022-10-16T01:53:51;1.00;;;1.00;;
26106;SDS011;13866;50.748;12.630;2022-10-16T01:56:19;2.27;;;1.00;;
26106;SDS011;13866;50.748;12.630;2022-10-16T01:59:33;0.60;;;0.60;;
26106;SDS011;13866;50.748;12.630;2022-10-16T02:01:38;0.60;;;0.60;;
26106;SDS011;13866;50.748;12.630;2022-10-16T02:04:09;4.97;;;1.00;;
26106;SDS011;13866;50.748;12.630;2022-10-16T02:06:40;2.10;;;0.70;;
26106;SDS011;13866;50.748;12.630;2022-10-16T02:09:05;0.60;;;0.60;;
26106;SDS011;13866;50.748;12.630;2022-10-16T02:11:31;0.50;;;0.50;;
26106;SDS011;13866;50.748;12.630;2022-10-16T02:14:06;0.60;;;0.60;;
26106;SDS011;13866;50.748;12.630;2022-10-16T02:16:53;2.63;;;0.60;;
26106;SDS011;13866;50.748;12.630;2022-10-16T02:19:17;1.03;;;0.57;;
26106;SDS011;13866;50.748;12.630;2022-10-16T02:21:59;0.80;;;0.63;;
26106;SDS011;13866;50.748;12.630;2022-10-16T02:24:32;3.20;;;1.00;;
26106;SDS011;13866;50.748;12.630;2022-10-16T02:29:34;0.60;;;0.60;;
26106;SDS011;13866;50.748;12.630;2022-10-16T02:32:20;0.70;;;0.70;;
26106;SDS011;13866;50.748;12.630;2022-10-16T02:34:49;4.07;;;0.70;;
26106;SDS011;13866;50.748;12.630;2022-10-16T02:37:16;0.67;;;0.67;;
26106;SDS011;13866;50.748;12.630;2022-10-16T02:39:42;1.20;;;0.60;;
26106;SDS011;13866;50.748;12.630;2022-10-16T02:42:12;5.43;;;0.90;;
26106;SDS011;13866;50.748;12.630;2022-10-16T02:44:38;0.70;;;0.70;;
26106;SDS011;13866;50.748;12.630;2022-10-16T02:47:04;0.70;;;0.70;;
26106;SDS011;13866;50.748;12.630;2022-10-16T02:49:29;0.87;;;0.87;;
26106;SDS011;13866;50.748;12.630;2022-10-16T02:51:55;0.97;;;0.80;;
26106;SDS011;13866;50.748;12.630;2022-10-16T02:54:20;0.93;;;0.70;;
26106;SDS011;13866;50.748;12.630;2022-10-16T02:56:46;0.80;;;0.80;;
26106;SDS011;13866;50.748;12.630;2022-10-16T02:59:11;1.40;;;0.90;;
26106;SDS011;13866;50.748;12.630;2022-10-16T03:01:37;1.80;;;1.33;;
26106;SDS011;13866;50.748;12.630;2022-10-16T03:04:02;1.17;;;0.93;;
26106;SDS011;13866;50.748;12.630;2022-10-16T03:06:28;0.60;;;0.60;;
26106;SDS011;13866;50.748;12.630;2022-10-16T03:08:53;3.57;;;1.77;;
26106;SDS011;13866;50.748;12.630;2022-10-16T03:11:19;0.73;;;0.73;;
26106;SDS011;13866;50.748;12.630;2022-10-16T03:13:44;0.80;;;0.80;;
26106;SDS011;13866;50.748;12.630;2022-10-16T03:16:10;0.77;;;0.77;;
26106;SDS011;13866;50.748;12.630;2022-10-16T03:18:36;5.00;;;0.60;;
26106;SDS011;13866;50.748;12.630;2022-10-16T03:21:01;0.60;;;0.60;;
26106;SDS011;13866;50.748;12.630;2022-10-16T03:23:27;0.40;;;0.40;;
26106;SDS011;13866;50.748;12.630;2022-10-16T03:25:53;0.50;;;0.50;;
26106;SDS011;13866;50.748;12.630;2022-10-16T03:28:19;0.53;;;0.50;;
26106;SDS011;13866;50.748;12.630;2022-10-16T03:30:44;0.57;;;0.57;;
26106;SDS011;13866;50.748;12.630;2022-10-16T03:33:10;1.47;;;0.50;;
26106;SDS011;13866;50.748;12.630;2022-10-16T03:35:35;0.50;;;0.50;;
26106;SDS011;13866;50.748;12.630;2022-10-16T03:38:01;0.50;;;0.50;;
26106;SDS011;13866;50.748;12.630;2022-10-16T03:40:26;1.23;;;0.60;;
26106;SDS011;13866;50.748;12.630;2022-10-16T03:42:52;0.60;;;0.60;;
26106;SDS011;13866;50.748;12.630;2022-10-16T03:45:20;0.50;;;0.50;;
26106;SDS011;13866;50.748;12.630;2022-10-16T03:47:45;0.93;;;0.60;;
26106;SDS011;13866;50.748;12.630;2022-10-16T03:50:12;0.50;;;0.50;;
26106;SDS011;13866;50.748;12.630;2022-10-16T03:52:37;0.60;;;0.60;;
26106;SDS011;13866;50.748;12.630;2022-10-16T03:55:03;0.40;;;0.40;;
26106;SDS011;13866;50.748;12.630;2022-10-16T03:57:29;1.47;;;0.67;;
26106;SDS011;13866;50.748;12.630;2022-10-16T03:59:54;6.77;;;1.07;;
26106;SDS011;13866;50.748;12.630;2022-10-16T04:02:20;2.70;;;0.80;;
26106;SDS011;13866;50.748;12.630;2022-10-16T04:04:45;1.90;;;0.60;;
26106;SDS011;13866;50.748;12.630;2022-10-16T04:07:11;0.67;;;0.67;;
26106;SDS011;13866;50.748;12.630;2022-10-16T04:09:36;1.37;;;0.50;;
26106;SDS011;13866;50.748;12.630;2022-10-16T04:12:02;0.67;;;0.67;;
26106;SDS011;13866;50.748;12.630;2022-10-16T04:14:28;0.70;;;0.70;;
26106;SDS011;13866;50.748;12.630;2022-10-16T04:16:53;0.60;;;0.60;;
26106;SDS011;13866;50.748;12.630;2022-10-16T04:19:19;3.83;;;0.60;;
26106;SDS011;13866;50.748;12.630;2022-10-16T04:21:44;0.50;;;0.50;;
26106;SDS011;13866;50.748;12.630;2022-10-16T04:24:10;0.50;;;0.50;;
26106;SDS011;13866;50.748;12.630;2022-10-16T04:26:36;0.83;;;0.73;;
26106;SDS011;13866;50.748;12.630;2022-10-16T04:29:02;0.70;;;0.70;;
26106;SDS011;13866;50.748;12.630;2022-10-16T04:31:27;1.60;;;0.70;;
26106;SDS011;13866;50.748;12.630;2022-10-16T04:33:53;3.83;;;0.90;;
26106;SDS011;13866;50.748;12.630;2022-10-16T04:36:18;0.50;;;0.50;;
26106;SDS011;13866;50.748;12.630;2022-10-16T04:38:44;0.50;;;0.50;;
26106;SDS011;13866;50.748;12.630;2022-10-16T04:41:09;1.07;;;0.60;;
26106;SDS011;13866;50.748;12.630;2022-10-16T04:43:35;0.40;;;0.40;;
26106;SDS011;13866;50.748;12.630;2022-10-16T04:46:00;1.90;;;0.50;;
26106;SDS011;13866;50.748;12.630;2022-10-16T04:48:26;0.50;;;0.50;;
26106;SDS011;13866;50.748;12.630;2022-10-16T04:50:52;0.50;;;0.50;;
26106;SDS011;13866;50.748;12.630;2022-10-16T04:53:17;2.00;;;0.70;;
26106;SDS011;13866;50.748;12.630;2022-10-16T04:55:43;0.60;;;0.60;;
26106;SDS011;13866;50.748;12.630;2022-10-16T04:58:09;0.50;;;0.50;;
26106;SDS011;13866;50.748;12.630;2022-10-16T05:00:34;0.50;;;0.50;;
26106;SDS011;13866;50.748;12.630;2022-10-16T05:03:00;0.57;;;0.57;;
26106;SDS011;13866;50.748;12.630;2022-10-16T05:05:27;0.60;;;0.60;;
26106;SDS011;13866;50.748;12.630;2022-10-16T05:07:53;3.80;;;0.70;;
26106;SDS011;13866;50.748;12.630;2022-10-16T05:10:19;0.67;;;0.67;;
26106;SDS011;13866;50.748;12.630;2022-10-16T05:12:44;0.40;;;0.40;;
26106;SDS011;13866;50.748;12.630;2022-10-16T05:15:10;0.70;;;0.70;;
26106;SDS011;13866;50.748;12.630;2022-10-16T05:17:36;0.63;;;0.60;;
26106;SDS011;13866;50.748;12.630;2022-10-16T05:20:01;0.70;;;0.70;;
26106;SDS011;13866;50.748;12.630;2022-10-16T05:22:28;1.23;;;0.83;;
26106;SDS011;13866;50.748;12.630;2022-10-16T05:24:53;1.00;;;1.00;;
26106;SDS011;13866;50.748;12.630;2022-10-16T05:27:19;0.70;;;0.70;;
26106;SDS011;13866;50.748;12.630;2022-10-16T05:29:45;3.27;;;0.63;;
26106;SDS011;13866;50.748;12.630;2022-10-16T05:32:12;0.60;;;0.60;;
26106;SDS011;13866;50.748;12.630;2022-10-16T05:34:38;0.50;;;0.50;;
26106;SDS011;13866;50.748;12.630;2022-10-16T05:37:04;2.10;;;0.50;;
26106;SDS011;13866;50.748;12.630;2022-10-16T05:39:30;1.73;;;0.87;;
26106;SDS011;13866;50.748;12.630;2022-10-16T05:41:55;0.70;;;0.70;;
26106;SDS011;13866;50.748;12.630;2022-10-16T05:44:21;13.80;;;0.90;;
26106;SDS011;13866;50.748;12.630;2022-10-16T05:46:46;0.60;;;0.57;;
26106;SDS011;13866;50.748;12.630;2022-10-16T05:49:12;5.50;;;1.03;;
26106;SDS011;13866;50.748;12.630;2022-10-16T05:51:37;3.03;;;0.50;;
26106;SDS011;13866;50.748;12.630;2022-10-16T05:54:03;0.40;;;0.40;;
26106;SDS011;13866;50.748;12.630;2022-10-16T05:56:28;0.40;;;0.40;;
26106;SDS011;13866;50.748;12.630;2022-10-16T05:58:54;6.07;;;0.67;;
26106;SDS011;13866;50.748;12.630;2022-10-16T06:01:19;2.00;;;0.80;;
26106;SDS011;13866;50.748;12.630;2022-10-16T06:03:49;0.60;;;0.60;;
26106;SDS011;13866;50.748;12.630;2022-10-16T06:06:19;0.80;;;0.80;;
26106;SDS011;13866;50.748;12.630;2022-10-16T06:08:46;0.93;;;0.93;;
26106;SDS011;13866;50.748;12.630;2022-10-16T06:11:17;1.27;;;1.27;;
26106;SDS011;13866;50.748;12.630;2022-10-16T06:13:44;1.20;;;1.20;;
26106;SDS011;13866;50.748;12.630;2022-10-16T06:16:10;3.10;;;2.73;;
26106;SDS011;13866;50.748;12.630;2022-10-16T06:18:37;2.30;;;2.30;;
26106;SDS011;13866;50.748;12.630;2022-10-16T06:21:10;1.53;;;1.53;;
26106;SDS011;13866;50.748;12.630;2022-10-16T06:23:37;1.10;;;1.10;;
26106;SDS011;13866;50.748;12.630;2022-10-16T06:26:06;4.53;;;1.30;;
26106;SDS011;13866;50.748;12.630;2022-10-16T06:28:33;1.10;;;1.10;;
26106;SDS011;13866;50.748;12.630;2022-10-16T06:30:59;1.80;;;1.70;;
26106;SDS011;13866;50.748;12.630;2022-10-16T06:33:26;1.90;;;1.90;;
26106;SDS011;13866;50.748;12.630;2022-10-16T06:35:51;1.40;;;1.40;;
26106;SDS011;13866;50.748;12.630;2022-10-16T06:38:17;9.63;;;9.03;;
26106;SDS011;13866;50.748;12.630;2022-10-16T06:40:42;4.60;;;4.40;;
26106;SDS011;13866;50.748;12.630;2022-10-16T06:43:08;5.63;;;5.53;;
26106;SDS011;13866;50.748;12.630;2022-10-16T06:45:33;5.63;;;4.90;;
26106;SDS011;13866;50.748;12.630;2022-10-16T06:47:59;2.50;;;2.50;;
26106;SDS011;13866;50.748;12.630;2022-10-16T06:50:24;2.43;;;1.00;;
26106;SDS011;13866;50.748;12.630;2022-10-16T06:52:50;2.40;;;1.20;;
26106;SDS011;13866;50.748;12.630;2022-10-16T06:55:15;1.20;;;1.20;;
26106;SDS011;13866;50.748;12.630;2022-10-16T06:57:42;2.30;;;1.33;;
26106;SDS011;13866;50.748;12.630;2022-10-16T07:00:08;1.13;;;0.77;;
26106;SDS011;13866;50.748;12.630;2022-10-16T07:02:34;0.67;;;0.67;;
26106;SDS011;13866;50.748;12.630;2022-10-16T07:05:00;1.10;;;1.10;;
26106;SDS011;13866;50.748;12.630;2022-10-16T07:07:26;0.70;;;0.70;;
26106;SDS011;13866;50.748;12.630;2022-10-16T07:09:51;0.80;;;0.80;;
26106;SDS011;13866;50.748;12.630;2022-10-16T07:12:17;0.80;;;0.80;;
26106;SDS011;13866;50.748;12.630;2022-10-16T07:14:43;0.90;;;0.90;;
26106;SDS011;13866;50.748;12.630;2022-10-16T07:17:08;0.80;;;0.80;;
26106;SDS011;13866;50.748;12.630;2022-10-16T07:19:34;0.90;;;0.90;;
26106;SDS011;13866;50.748;12.630;2022-10-16T07:21:59;0.80;;;0.80;;
26106;SDS011;13866;50.748;12.630;2022-10-16T07:24:25;3.03;;;0.97;;
26106;SDS011;13866;50.748;12.630;2022-10-16T07:26:51;1.27;;;1.23;;
26106;SDS011;13866;50.748;12.630;2022-10-16T07:29:18;2.10;;;1.27;;
26106;SDS011;13866;50.748;12.630;2022-10-16T07:31:45;2.23;;;1.00;;
26106;SDS011;13866;50.748;12.630;2022-10-16T07:34:12;1.07;;;0.80;;
26106;SDS011;13866;50.748;12.630;2022-10-16T07:36:38;1.10;;;1.10;;
26106;SDS011;13866;50.748;12.630;2022-10-16T07:39:04;4.30;;;0.90;;
26106;SDS011;13866;50.748;12.630;2022-10-16T07:41:30;0.90;;;0.90;;
26106;SDS011;13866;50.748;12.630;2022-10-16T07:43:57;5.20;;;0.70;;
26106;SDS011;13866;50.748;12.630;2022-10-16T07:46:25;1.93;;;0.93;;
26106;SDS011;13866;50.748;12.630;2022-10-16T07:48:51;0.70;;;0.70;;
26106;SDS011;13866;50.748;12.630;2022-10-16T07:51:19;1.03;;;1.03;;
26106;SDS011;13866;50.748;12.630;2022-10-16T07:53:49;0.90;;;0.80;;
26106;SDS011;13866;50.748;12.630;2022-10-16T07:56:15;0.97;;;0.97;;
26106;SDS011;13866;50.748;12.630;2022-10-16T07:58:41;1.17;;;1.17;;
26106;SDS011;13866;50.748;12.630;2022-10-16T08:01:08;0.73;;;0.73;;
26106;SDS011;13866;50.748;12.630;2022-10-16T08:03:35;0.80;;;0.80;;
26106;SDS011;13866;50.748;12.630;2022-10-16T08:06:02;0.77;;;0.77;;
26106;SDS011;13866;50.748;12.630;2022-10-16T08:08:29;0.70;;;0.70;;
26106;SDS011;13866;50.748;12.630;2022-10-16T08:10:55;0.90;;;0.90;;
26106;SDS011;13866;50.748;12.630;2022-10-16T08:13:20;0.50;;;0.50;;
26106;SDS011;13866;50.748;12.630;2022-10-16T08:15:46;0.80;;;0.80;;
26106;SDS011;13866;50.748;12.630;2022-10-16T08:18:13;0.80;;;0.80;;
26106;SDS011;13866;50.748;12.630;2022-10-16T08:20:39;0.90;;;0.90;;
26106;SDS011;13866;50.748;12.630;2022-10-16T08:23:06;3.30;;;1.20;;
26106;SDS011;13866;50.748;12.630;2022-10-16T08:25:34;0.87;;;0.70;;
26106;SDS011;13866;50.748;12.630;2022-10-16T08:28:02;0.77;;;0.77;;
26106;SDS011;13866;50.748;12.630;2022-10-16T08:30:29;0.93;;;0.93;;
26106;SDS011;13866;50.748;12.630;2022-10-16T08:32:55;1.40;;;0.90;;
26106;SDS011;13866;50.748;12.630;2022-10-16T08:35:20;0.63;;;0.63;;
26106;SDS011;13866;50.748;12.630;2022-10-16T08:37:46;1.47;;;0.73;;
26106;SDS011;13866;50.748;12.630;2022-10-16T08:40:16;1.17;;;0.77;;
26106;SDS011;13866;50.748;12.630;2022-10-16T08:42:47;1.00;;;0.97;;
26106;SDS011;13866;50.748;12.630;2022-10-16T08:51:00;8.43;;;0.87;;
26106;SDS011;13866;50.748;12.630;2022-10-16T08:53:31;4.83;;;0.83;;
26106;SDS011;13866;50.748;12.630;2022-10-16T08:56:03;0.73;;;0.73;;
26106;SDS011;13866;50.748;12.630;2022-10-16T08:58:30;0.70;;;0.70;;
26106;SDS011;13866;50.748;12.630;2022-10-16T09:00:56;0.70;;;0.70;;
26106;SDS011;13866;50.748;12.630;2022-10-16T09:11:14;0.77;;;0.70;;
26106;SDS011;13866;50.748;12.630;2022-10-16T09:14:42;0.70;;;0.70;;
26106;SDS011;13866;50.748;12.630;2022-10-16T09:16:56;0.93;;;0.93;;
26106;SDS011;13866;50.748;12.630;2022-10-16T09:19:31;1.23;;;1.23;;
26106;SDS011;13866;50.748;12.630;2022-10-16T09:22:09;1.17;;;1.17;;
26106;SDS011;13866;50.748;12.630;2022-10-16T09:24:37;1.40;;;1.30;;
26106;SDS011;13866;50.748;12.630;2022-10-16T09:27:03;0.67;;;0.67;;
26106;SDS011;13866;50.748;12.630;2022-10-16T09:29:28;1.40;;;0.70;;
26106;SDS011;13866;50.748;12.630;2022-10-16T09:31:54;0.60;;;0.60;;
26106;SDS011;13866;50.748;12.630;2022-10-16T09:34:36;0.77;;;0.77;;
26106;SDS011;13866;50.748;12.630;2022-10-16T09:37:12;0.70;;;0.70;;
26106;SDS011;13866;50.748;12.630;2022-10-16T09:39:52;0.70;;;0.70;;
26106;SDS011;13866;50.748;12.630;2022-10-16T09:42:19;1.90;;;0.70;;
26106;SDS011;13866;50.748;12.630;2022-10-16T09:44:48;0.70;;;0.70;;
26106;SDS011;13866;50.748;12.630;2022-10-16T09:47:19;0.90;;;0.80;;
26106;SDS011;13866;50.748;12.630;2022-10-16T09:49:51;1.13;;;0.67;;
26106;SDS011;13866;50.748;12.630;2022-10-16T09:52:19;0.77;;;0.77;;
26106;SDS011;13866;50.748;12.630;2022-10-16T09:54:55;2.73;;;1.00;;
26106;SDS011;13866;50.748;12.630;2022-10-16T09:57:22;1.90;;;1.20;;
26106;SDS011;13866;50.748;12.630;2022-10-16T09:59:48;1.43;;;1.23;;
26106;SDS011;13866;50.748;12.630;2022-10-16T10:02:19;0.70;;;0.70;;
26106;SDS011;13866;50.748;12.630;2022-10-16T10:04:55;0.83;;;0.83;;
26106;SDS011;13866;50.748;12.630;2022-10-16T10:07:29;9.53;;;1.30;;
26106;SDS011;13866;50.748;12.630;2022-10-16T10:10:00;0.90;;;0.90;;
26106;SDS011;13866;50.748;12.630;2022-10-16T10:12:28;2.10;;;0.93;;
26106;SDS011;13866;50.748;12.630;2022-10-16T10:14:57;3.50;;;0.80;;
26106;SDS011;13866;50.748;12.630;2022-10-16T10:17:29;3.13;;;0.90;;
26106;SDS011;13866;50.748;12.630;2022-10-16T10:19:56;0.60;;;0.60;;
26106;SDS011;13866;50.748;12.630;2022-10-16T10:22:30;1.10;;;1.10;;
26106;SDS011;13866;50.748;12.630;2022-10-16T10:30:13;1.27;;;1.10;;
26106;SDS011;13866;50.748;12.630;2022-10-16T10:38:43;0.80;;;0.80;;
26106;SDS011;13866;50.748;12.630;2022-10-16T10:46:56;0.60;;;0.60;;
26106;SDS011;13866;50.748;12.630;2022-10-16T10:53:16;2.30;;;0.70;;
26106;SDS011;13866;50.748;12.630;2022-10-16T10:57:49;0.53;;;0.53;;
26106;SDS011;13866;50.748;12.630;2022-10-16T11:00:44;2.00;;;0.87;;
26106;SDS011;13866;50.748;12.630;2022-10-16T11:06:29;1.13;;;0.80;;
26106;SDS011;13866;50.748;12.630;2022-10-16T11:09:12;0.67;;;0.67;;
26106;SDS011;13866;50.748;12.630;2022-10-16T11:12:11;0.80;;;0.80;;
26106;SDS011;13866;50.748;12.630;2022-10-16T11:15:47;0.53;;;0.53;;
26106;SDS011;13866;50.748;12.630;2022-10-16T11:20:33;1.23;;;0.60;;
26106;SDS011;13866;50.748;12.630;2022-10-16T11:25:50;3.37;;;0.87;;
26106;SDS011;13866;50.748;12.630;2022-10-16T11:33:47;0.70;;;0.70;;
26106;SDS011;13866;50.748;12.630;2022-10-16T11:41:45;0.60;;;0.60;;
26106;SDS011;13866;50.748;12.630;2022-10-16T11:47:13;6.90;;;0.90;;
26106;SDS011;13866;50.748;12.630;2022-10-16T11:50:06;0.53;;;0.53;;
26106;SDS011;13866;50.748;12.630;2022-10-16T11:53:03;1.07;;;1.07;;
26106;SDS011;13866;50.748;12.630;2022-10-16T11:55:39;0.90;;;0.90;;
26106;SDS011;13866;50.748;12.630;2022-10-16T11:58:07;0.77;;;0.60;;
26106;SDS011;13866;50.748;12.630;2022-10-16T12:01:01;0.80;;;0.80;;
26106;SDS011;13866;50.748;12.630;2022-10-16T12:03:35;0.60;;;0.60;;
26106;SDS011;13866;50.748;12.630;2022-10-16T12:06:25;0.80;;;0.80;;
26106;SDS011;13866;50.748;12.630;2022-10-16T12:08:58;1.07;;;0.70;;
26106;SDS011;13866;50.748;12.630;2022-10-16T12:16:59;6.03;;;0.77;;
26106;SDS011;13866;50.748;12.630;2022-10-16T12:19:25;0.60;;;0.60;;
26106;SDS011;13866;50.748;12.630;2022-10-16T12:21:54;0.70;;;0.70;;
26106;SDS011;13866;50.748;12.630;2022-10-16T12:26:59;1.83;;;0.80;;
26106;SDS011;13866;50.748;12.630;2022-10-16T12:32:04;0.63;;;0.63;;
26106;SDS011;13866;50.748;12.630;2022-10-16T12:34:46;0.77;;;0.70;;
26106;SDS011;13866;50.748;12.630;2022-10-16T12:37:20;1.60;;;0.77;;
26106;SDS011;13866;50.748;12.630;2022-10-16T12:39:49;3.23;;;0.93;;
26106;SDS011;13866;50.748;12.630;2022-10-16T12:42:23;0.60;;;0.60;;
26106;SDS011;13866;50.748;12.630;2022-10-16T12:44:58;0.80;;;0.60;;
26106;SDS011;13866;50.748;12.630;2022-10-16T12:47:35;2.73;;;0.73;;
26106;SDS011;13866;50.748;12.630;2022-10-16T12:52:56;3.00;;;0.70;;
26106;SDS011;13866;50.748;12.630;2022-10-16T12:55:22;0.90;;;0.90;;
26106;SDS011;13866;50.748;12.630;2022-10-16T13:00:36;4.13;;;0.80;;
26106;SDS011;13866;50.748;12.630;2022-10-16T13:04:06;0.73;;;0.73;;
26106;SDS011;13866;50.748;12.630;2022-10-16T13:12:25;2.17;;;0.50;;
26106;SDS011;13866;50.748;12.630;2022-10-16T13:20:39;1.47;;;0.70;;
26106;SDS011;13866;50.748;12.630;2022-10-16T13:23:33;1.27;;;1.20;;
26106;SDS011;13866;50.748;12.630;2022-10-16T13:26:13;0.90;;;0.90;;
26106;SDS011;13866;50.748;12.630;2022-10-16T13:28:53;0.70;;;0.70;;
26106;SDS011;13866;50.748;12.630;2022-10-16T13:31:20;0.93;;;0.80;;
26106;SDS011;13866;50.748;12.630;2022-10-16T13:33:52;4.87;;;0.60;;
26106;SDS011;13866;50.748;12.630;2022-10-16T13:36:22;3.20;;;0.80;;
26106;SDS011;13866;50.748;12.630;2022-10-16T13:38:59;0.90;;;0.90;;
26106;SDS011;13866;50.748;12.630;2022-10-16T13:41:36;0.73;;;0.70;;
26106;SDS011;13866;50.748;12.630;2022-10-16T13:44:01;1.00;;;1.00;;
26106;SDS011;13866;50.748;12.630;2022-10-16T13:46:27;1.00;;;1.00;;
26106;SDS011;13866;50.748;12.630;2022-10-16T13:49:04;0.60;;;0.60;;
26106;SDS011;13866;50.748;12.630;2022-10-16T13:51:36;0.90;;;0.90;;
26106;SDS011;13866;50.748;12.630;2022-10-16T13:54:01;5.50;;;1.53;;
26106;SDS011;13866;50.748;12.630;2022-10-16T13:56:28;1.00;;;1.00;;
26106;SDS011;13866;50.748;12.630;2022-10-16T13:59:02;0.90;;;0.90;;
26106;SDS011;13866;50.748;12.630;2022-10-16T14:01:47;0.70;;;0.70;;
26106;SDS011;13866;50.748;12.630;2022-10-16T14:04:13;0.67;;;0.67;;
26106;SDS011;13866;50.748;12.630;2022-10-16T14:06:43;1.60;;;1.50;;
26106;SDS011;13866;50.748;12.630;2022-10-16T14:09:26;1.10;;;1.10;;
26106;SDS011;13866;50.748;12.630;2022-10-16T14:11:55;1.67;;;1.40;;
26106;SDS011;13866;50.748;12.630;2022-10-16T14:14:26;2.63;;;0.70;;
26106;SDS011;13866;50.748;12.630;2022-10-16T14:16:57;0.57;;;0.53;;
26106;SDS011;13866;50.748;12.630;2022-10-16T14:19:26;0.70;;;0.70;;
26106;SDS011;13866;50.748;12.630;2022-10-16T14:21:54;0.47;;;0.47;;
26106;SDS011;13866;50.748;12.630;2022-10-16T14:24:30;0.60;;;0.60;;
26106;SDS011;13866;50.748;12.630;2022-10-16T14:26:58;0.70;;;0.70;;
26106;SDS011;13866;50.748;12.630;2022-10-16T14:29:25;2.40;;;2.30;;
26106;SDS011;13866;50.748;12.630;2022-10-16T14:31:59;3.70;;;1.57;;
26106;SDS011;13866;50.748;12.630;2022-10-16T14:34:36;2.03;;;0.77;;
26106;SDS011;13866;50.748;12.630;2022-10-16T14:37:16;2.53;;;2.53;;
26106;SDS011;13866;50.748;12.630;2022-10-16T14:39:49;4.17;;;3.87;;
26106;SDS011;13866;50.748;12.630;2022-10-16T14:42:19;1.50;;;0.80;;
26106;SDS011;13866;50.748;12.630;2022-10-16T14:44:48;1.10;;;1.10;;
26106;SDS011;13866;50.748;12.630;2022-10-16T14:47:18;1.13;;;1.03;;
26106;SDS011;13866;50.748;12.630;2022-10-16T14:49:50;14.33;;;8.63;;
26106;SDS011;13866;50.748;12.630;2022-10-16T14:52:18;1.60;;;1.60;;
26106;SDS011;13866;50.748;12.630;2022-10-16T14:54:43;1.10;;;1.10;;
26106;SDS011;13866;50.748;12.630;2022-10-16T14:57:17;1.80;;;0.70;;
26106;SDS011;13866;50.748;12.630;2022-10-16T14:59:44;2.03;;;0.93;;
26106;SDS011;13866;50.748;12.630;2022-10-16T15:02:27;0.70;;;0.70;;
26106;SDS011;13866;50.748;12.630;2022-10-16T15:04:53;1.10;;;0.70;;
26106;SDS011;13866;50.748;12.630;2022-10-16T15:07:19;1.07;;;0.80;;
26106;SDS011;13866;50.748;12.630;2022-10-16T15:09:45;0.83;;;0.77;;
26106;SDS011;13866;50.748;12.630;2022-10-16T15:12:11;1.90;;;0.90;;
26106;SDS011;13866;50.748;12.630;2022-10-16T15:14:36;4.00;;;2.20;;
26106;SDS011;13866;50.748;12.630;2022-10-16T15:17:02;1.30;;;1.30;;
26106;SDS011;13866;50.748;12.630;2022-10-16T15:19:28;0.90;;;0.90;;
26106;SDS011;13866;50.748;12.630;2022-10-16T15:21:54;1.10;;;1.10;;
26106;SDS011;13866;50.748;12.630;2022-10-16T15:24:20;2.43;;;1.07;;
26106;SDS011;13866;50.748;12.630;2022-10-16T15:26:45;3.27;;;1.10;;
26106;SDS011;13866;50.748;12.630;2022-10-16T15:29:11;0.80;;;0.80;;
26106;SDS011;13866;50.748;12.630;2022-10-16T15:31:37;1.33;;;1.00;;
26106;SDS011;13866;50.748;12.630;2022-10-16T15:34:03;1.50;;;1.40;;
26106;SDS011;13866;50.748;12.630;2022-10-16T15:36:30;1.70;;;1.60;;
26106;SDS011;13866;50.748;12.630;2022-10-16T15:39:02;3.00;;;1.70;;
26106;SDS011;13866;50.748;12.630;2022-10-16T15:41:28;0.80;;;0.80;;
26106;SDS011;13866;50.748;12.630;2022-10-16T15:43:54;1.20;;;1.20;;
26106;SDS011;13866;50.748;12.630;2022-10-16T15:46:20;3.90;;;1.10;;
26106;SDS011;13866;50.748;12.630;2022-10-16T15:48:50;8.03;;;0.87;;
26106;SDS011;13866;50.748;12.630;2022-10-16T15:51:20;1.20;;;1.20;;
26106;SDS011;13866;50.748;12.630;2022-10-16T15:53:46;0.80;;;0.80;;
26106;SDS011;13866;50.748;12.630;2022-10-16T15:56:12;4.00;;;1.00;;
26106;SDS011;13866;50.748;12.630;2022-10-16T15:58:38;5.87;;;2.57;;
26106;SDS011;13866;50.748;12.630;2022-10-16T16:01:05;1.90;;;1.90;;
26106;SDS011;13866;50.748;12.630;2022-10-16T16:03:31;7.63;;;6.90;;
26106;SDS011;13866;50.748;12.630;2022-10-16T16:05:58;7.90;;;7.00;;
26106;SDS011;13866;50.748;12.630;2022-10-16T16:08:28;6.50;;;6.00;;
26106;SDS011;13866;50.748;12.630;2022-10-16T16:11:00;14.07;;;6.63;;
26106;SDS011;13866;50.748;12.630;2022-10-16T16:13:28;12.43;;;8.87;;
26106;SDS011;13866;50.748;12.630;2022-10-16T16:15:54;9.07;;;8.37;;
26106;SDS011;13866;50.748;12.630;2022-10-16T16:18:19;7.80;;;7.03;;
26106;SDS011;13866;50.748;12.630;2022-10-16T16:20:45;6.87;;;6.07;;
26106;SDS011;13866;50.748;12.630;2022-10-16T16:23:11;6.60;;;6.30;;
26106;SDS011;13866;50.748;12.630;2022-10-16T16:25:36;5.80;;;5.30;;